createdAt,value
2023-03-21T00:02:27.656Z,98.75
2023-03-21T00:05:15.968Z,98.77
2023-03-21T00:08:02.923Z,98.48
2023-03-21T00:11:01.879Z,98.30
2023-03-21T00:13:48.469Z,98.32
2023-03-21T00:16:35.449Z,98.05
2023-03-21T00:19:25.753Z,97.88
2023-03-21T00:22:12.225Z,98.16
2023-03-21T00:24:59.097Z,98.08
2023-03-21T00:28:01.130Z,97.82
2023-03-21T00:30:57.985Z,97.35
2023-03-21T00:33:44.796Z,97.57
2023-03-21T00:36:31.868Z,97.29
2023-03-21T00:39:18.329Z,97.61
2023-03-21T00:42:05.156Z,97.26
2023-03-21T00:44:51.550Z,97.40
2023-03-21T00:47:38.386Z,96.97
2023-03-21T00:50:25.746Z,96.44
2023-03-21T00:53:14.716Z,96.65
2023-03-21T00:56:00.812Z,96.42
2023-03-21T00:58:47.203Z,96.09
2023-03-21T01:01:37.659Z,96.12
2023-03-21T01:04:27.979Z,95.96
2023-03-21T01:07:14.596Z,96.06
2023-03-21T01:10:00.907Z,95.84
2023-03-21T01:12:47.393Z,95.70
2023-03-21T01:15:35.767Z,95.60
2023-03-21T01:18:27.024Z,95.54
2023-03-21T01:21:14.325Z,95.51
2023-03-21T01:24:01.689Z,95.30
2023-03-21T01:26:49.315Z,94.64
2023-03-21T01:29:35.744Z,94.66
2023-03-21T01:32:22.095Z,94.60
2023-03-21T01:35:08.858Z,94.53
2023-03-21T01:37:55.382Z,94.47
2023-03-21T01:40:46.275Z,94.37
2023-03-21T01:43:41.598Z,93.90
2023-03-21T01:46:30.238Z,93.90
2023-03-21T01:49:50.395Z,93.89
2023-03-21T01:52:41.219Z,94.12
2023-03-21T01:55:34.131Z,94.01
2023-03-21T01:58:44.998Z,94.34
2023-03-21T02:02:06.723Z,94.66
2023-03-21T02:04:57.575Z,95.00
2023-03-21T02:07:52.097Z,94.83
2023-03-21T02:10:41.840Z,94.91
2023-03-21T02:13:30.250Z,94.81
2023-03-21T02:16:51.280Z,94.76
2023-03-21T02:20:02.109Z,94.74
2023-03-21T02:23:14.174Z,94.41
2023-03-21T02:26:42.005Z,93.67
2023-03-21T02:30:07.170Z,93.46
2023-03-21T02:33:25.555Z,93.09
2023-03-21T02:36:51.454Z,92.49
2023-03-21T02:39:56.850Z,92.19
2023-03-21T02:43:01.052Z,92.64
2023-03-21T02:46:01.419Z,92.31
2023-03-21T02:49:14.610Z,92.36
2023-03-21T02:52:14.476Z,92.34
2023-03-21T02:55:18.359Z,92.02
2023-03-21T02:58:18.760Z,91.97
2023-03-21T03:01:09.247Z,92.04
2023-03-21T03:04:03.469Z,92.13
2023-03-21T03:07:12.572Z,92.37
2023-03-21T03:10:50.141Z,92.26
2023-03-21T03:14:25.186Z,92.16
2023-03-21T03:17:22.652Z,92.41
2023-03-21T03:20:53.345Z,92.39
2023-03-21T03:23:45.700Z,92.53
2023-03-21T03:26:41.345Z,92.52
2023-03-21T03:29:31.058Z,92.37
2023-03-21T03:32:29.842Z,92.45
2023-03-21T03:35:19.910Z,92.14
2023-03-21T03:38:07.847Z,92.14
2023-03-21T03:41:02.810Z,92.06
2023-03-21T03:44:02.274Z,91.83
2023-03-21T03:47:06.015Z,91.59
2023-03-21T03:50:09.323Z,91.39
2023-03-21T03:53:18.064Z,91.38
2023-03-21T03:56:11.006Z,91.47
2023-03-21T03:58:57.742Z,91.18
2023-03-21T04:01:56.062Z,91.02
2023-03-21T04:04:43.057Z,91.03
2023-03-21T04:07:29.792Z,90.80
2023-03-21T04:10:19.838Z,90.44
2023-03-21T04:13:06.728Z,89.89
2023-03-21T04:16:03.158Z,89.85
2023-03-21T04:18:50.047Z,89.92
2023-03-21T04:21:38.725Z,90.55
2023-03-21T04:24:25.986Z,90.62
2023-03-21T04:27:15.427Z,90.63
2023-03-21T04:30:11.478Z,90.77
2023-03-21T04:33:10.913Z,90.92
2023-03-21T04:35:58.581Z,90.17
2023-03-21T04:38:47.900Z,89.74
2023-03-21T04:41:36.752Z,89.52
2023-03-21T04:44:24.022Z,89.62
2023-03-21T04:47:12.689Z,89.78
2023-03-21T04:49:59.094Z,89.83
2023-03-21T04:52:45.592Z,89.98
2023-03-21T04:55:32.541Z,90.06
2023-03-21T04:58:19.730Z,90.14
2023-03-21T05:01:07.455Z,90.41
2023-03-21T05:03:54.033Z,90.96
2023-03-21T05:06:42.081Z,91.30
2023-03-21T05:09:29.131Z,91.54
2023-03-21T05:12:17.913Z,91.88
2023-03-21T05:15:05.962Z,91.89
2023-03-21T05:17:52.377Z,91.85
2023-03-21T05:20:43.694Z,91.77
2023-03-21T05:23:31.059Z,91.53
2023-03-21T05:26:17.325Z,91.35
2023-03-21T05:29:11.524Z,91.03
2023-03-21T05:32:00.426Z,90.88
2023-03-21T05:34:46.553Z,90.65
2023-03-21T05:37:33.967Z,90.44
2023-03-21T05:40:20.795Z,90.05
2023-03-21T05:43:07.928Z,90.01
2023-03-21T05:45:54.908Z,90.01
2023-03-21T05:48:41.650Z,89.46
2023-03-21T05:51:32.978Z,89.38
2023-03-21T05:54:19.619Z,89.52
2023-03-21T05:57:08.016Z,89.19
2023-03-21T06:00:21.474Z,88.88
2023-03-21T06:03:20.432Z,88.74
2023-03-21T06:06:29.692Z,88.41
2023-03-21T06:09:20.582Z,88.54
2023-03-21T06:12:12.275Z,88.83
2023-03-21T06:15:08.347Z,88.42
2023-03-21T06:18:13.300Z,88.02
2023-03-21T06:21:03.316Z,87.52
2023-03-21T06:23:51.255Z,86.98
2023-03-21T06:26:37.952Z,85.79
2023-03-21T06:29:24.879Z,85.62
2023-03-21T06:32:12.581Z,85.51
2023-03-21T06:34:59.637Z,86.10
2023-03-21T06:37:48.772Z,85.33
2023-03-21T06:40:37.039Z,85.40
2023-03-21T06:43:24.634Z,85.14
2023-03-21T06:46:11.635Z,84.77
2023-03-21T06:48:58.633Z,84.60
2023-03-21T06:51:45.741Z,84.09
2023-03-21T06:54:37.592Z,83.57
2023-03-21T06:57:35.367Z,83.20
2023-03-21T07:00:23.745Z,82.79
2023-03-21T07:03:12.411Z,82.76
2023-03-21T07:06:03.391Z,82.46
2023-03-21T07:08:50.525Z,82.55
2023-03-21T07:11:37.667Z,82.64
2023-03-21T07:14:25.004Z,82.59
2023-03-21T07:17:11.382Z,82.59
2023-03-21T07:19:59.431Z,82.15
2023-03-21T07:22:47.010Z,82.26
2023-03-21T07:25:34.061Z,81.33
2023-03-21T07:28:22.259Z,81.65
2023-03-21T07:31:15.306Z,81.43
2023-03-21T07:34:02.066Z,80.99
2023-03-21T07:36:48.955Z,80.77
2023-03-21T07:39:35.620Z,80.01
2023-03-21T07:42:22.328Z,79.17
2023-03-21T07:45:10.835Z,78.14
2023-03-21T07:47:57.216Z,78.02
2023-03-21T07:50:43.650Z,77.80
2023-03-21T07:53:30.110Z,76.81
2023-03-21T07:56:16.931Z,76.63
2023-03-21T07:59:04.832Z,73.24
2023-03-21T08:01:51.356Z,69.58
2023-03-21T08:04:38.460Z,69.03
2023-03-21T08:07:26.894Z,68.60
2023-03-21T08:10:13.639Z,69.18
2023-03-21T08:13:00.210Z,68.96
2023-03-21T08:15:46.913Z,69.45
2023-03-21T08:18:33.768Z,69.36
2023-03-21T08:21:20.077Z,69.15
2023-03-21T08:24:07.887Z,69.80
2023-03-21T08:26:54.522Z,70.13
2023-03-21T08:29:41.859Z,69.73
2023-03-21T08:32:32.279Z,69.40
2023-03-21T08:35:19.822Z,69.66
2023-03-21T08:38:06.760Z,69.51
2023-03-21T08:40:53.435Z,69.58
2023-03-21T08:43:40.381Z,68.97
2023-03-21T08:46:27.362Z,68.92
2023-03-21T08:49:14.365Z,67.53
2023-03-21T08:52:03.117Z,65.94
2023-03-21T08:54:50.257Z,66.55
2023-03-21T08:57:39.864Z,66.59
2023-03-21T09:00:26.649Z,66.20
2023-03-21T09:03:13.265Z,66.00
2023-03-21T09:06:00.206Z,64.63
2023-03-21T09:08:46.540Z,64.09
2023-03-21T09:11:34.158Z,62.02
2023-03-21T09:14:23.880Z,62.12
2023-03-21T09:17:19.986Z,62.86
2023-03-21T09:20:18.250Z,59.84
2023-03-21T09:23:05.453Z,59.87
2023-03-21T09:25:51.988Z,60.05
2023-03-21T09:28:38.589Z,60.65
2023-03-21T09:31:25.394Z,61.24
2023-03-21T09:34:15.130Z,61.57
2023-03-21T09:37:02.852Z,62.65
2023-03-21T09:39:51.225Z,62.87
2023-03-21T09:42:57.234Z,62.94
2023-03-21T09:45:54.520Z,63.33
2023-03-21T09:48:58.279Z,64.31
2023-03-21T09:51:48.759Z,64.21
2023-03-21T09:54:40.016Z,63.69
2023-03-21T09:57:45.164Z,62.54
2023-03-21T10:00:39.499Z,62.23
2023-03-21T10:03:36.343Z,61.37
2023-03-21T10:06:33.706Z,61.48
2023-03-21T10:09:23.876Z,59.70
2023-03-21T10:12:22.267Z,56.60
2023-03-21T10:15:15.145Z,55.31
2023-03-21T10:18:06.755Z,55.16
2023-03-21T10:20:54.153Z,54.55
2023-03-21T10:23:40.646Z,54.80
2023-03-21T10:26:30.075Z,54.77
2023-03-21T10:29:18.565Z,54.46
2023-03-21T10:32:09.397Z,51.82
2023-03-21T10:34:58.038Z,51.01
2023-03-21T10:37:45.979Z,50.11
2023-03-21T10:40:34.241Z,48.73
2023-03-21T10:43:29.125Z,48.39
2023-03-21T10:46:21.064Z,48.16
2023-03-21T10:49:08.196Z,48.82
2023-03-21T10:52:02.648Z,48.88
2023-03-21T10:55:03.236Z,50.17
2023-03-21T10:57:58.214Z,50.22
2023-03-21T11:00:45.980Z,47.78
2023-03-21T11:03:42.816Z,46.78
2023-03-21T11:06:32.883Z,47.57
2023-03-21T11:09:24.448Z,47.29
2023-03-21T11:12:15.618Z,47.85
2023-03-21T11:15:39.801Z,48.09
2023-03-21T11:18:33.516Z,49.33
2023-03-21T11:21:21.642Z,50.65
2023-03-21T11:24:15.211Z,51.42
2023-03-21T11:27:07.824Z,50.79
2023-03-21T11:29:55.575Z,49.44
2023-03-21T11:32:42.246Z,47.83
2023-03-21T11:35:38.878Z,47.28
2023-03-21T11:38:31.262Z,46.04
2023-03-21T11:41:31.188Z,45.10
2023-03-21T11:44:44.068Z,45.74
2023-03-21T11:47:31.102Z,46.50
2023-03-21T11:50:41.886Z,46.84
2023-03-21T11:54:10.250Z,46.14
2023-03-21T11:57:05.212Z,46.78
2023-03-21T12:00:13.862Z,47.64
2023-03-21T12:03:48.651Z,48.35
2023-03-21T12:06:54.659Z,48.95
2023-03-21T12:09:46.167Z,48.66
2023-03-21T12:12:39.107Z,48.86
2023-03-21T12:15:50.681Z,48.43
2023-03-21T12:19:15.321Z,47.80
2023-03-21T12:22:28.976Z,47.14
2023-03-21T12:25:27.198Z,47.17
2023-03-21T12:28:38.395Z,47.22
2023-03-21T12:31:44.286Z,47.07
2023-03-21T12:35:12.783Z,47.17
2023-03-21T12:38:12.772Z,47.35
2023-03-21T12:41:23.008Z,47.58
2023-03-21T12:44:20.762Z,48.40
2023-03-21T12:47:30.930Z,48.49
2023-03-21T12:50:36.803Z,49.51
2023-03-21T12:53:52.445Z,50.02
2023-03-21T12:56:55.902Z,50.09
2023-03-21T13:00:13.820Z,50.68
2023-03-21T13:03:13.803Z,50.83
2023-03-21T13:06:06.155Z,50.79
2023-03-21T13:09:23.324Z,50.72
2023-03-21T13:13:01.621Z,50.65
2023-03-21T13:16:09.956Z,51.98
2023-03-21T13:19:14.069Z,51.63
2023-03-21T13:22:14.700Z,51.38
2023-03-21T13:25:21.390Z,50.22
2023-03-21T13:28:25.356Z,50.73
2023-03-21T13:31:25.442Z,50.26
2023-03-21T13:34:13.295Z,50.77
2023-03-21T13:37:00.909Z,50.47
2023-03-21T13:39:49.360Z,50.41
2023-03-21T13:42:44.080Z,50.49
2023-03-21T13:45:45.509Z,51.27
2023-03-21T13:48:58.603Z,51.16
2023-03-21T13:51:56.176Z,51.47
2023-03-21T13:54:53.180Z,51.76
2023-03-21T13:57:39.618Z,52.46
2023-03-21T14:00:31.115Z,52.54
2023-03-21T14:03:18.074Z,52.47
2023-03-21T14:06:07.582Z,51.52
2023-03-21T14:08:53.983Z,52.25
2023-03-21T14:11:46.445Z,52.58
2023-03-21T14:14:41.390Z,52.49
2023-03-21T14:17:34.146Z,52.68
2023-03-21T14:20:31.902Z,52.55
2023-03-21T14:23:19.628Z,53.48
2023-03-21T14:26:06.239Z,55.92
2023-03-21T14:28:52.897Z,56.87
2023-03-21T14:31:39.418Z,57.88
2023-03-21T14:34:28.955Z,58.26
2023-03-21T14:37:32.238Z,58.82
2023-03-21T14:40:25.992Z,59.26
2023-03-21T14:43:12.431Z,59.15
2023-03-21T14:46:00.599Z,59.13
2023-03-21T14:48:46.974Z,59.52
2023-03-21T14:51:33.251Z,60.43
2023-03-21T14:54:20.015Z,60.47
2023-03-21T14:57:28.999Z,61.09
2023-03-21T15:00:30.866Z,61.81
2023-03-21T15:03:21.648Z,62.31
2023-03-21T15:06:35.154Z,62.65
2023-03-21T15:09:29.489Z,63.18
2023-03-21T15:12:15.843Z,63.69
2023-03-21T15:15:03.119Z,64.30
2023-03-21T15:17:52.343Z,64.61
2023-03-21T15:20:39.430Z,65.16
2023-03-21T15:23:35.522Z,65.44
2023-03-21T15:26:25.217Z,65.62
2023-03-21T15:29:13.624Z,66.01
2023-03-21T15:32:06.255Z,65.93
2023-03-21T15:35:06.073Z,66.16
2023-03-21T15:37:57.734Z,66.60
2023-03-21T15:40:44.664Z,67.27
2023-03-21T15:43:39.655Z,68.10
2023-03-21T15:46:52.405Z,68.38
2023-03-21T15:49:41.303Z,69.11
2023-03-21T15:52:27.701Z,69.39
2023-03-21T15:55:30.232Z,69.74
2023-03-21T15:58:26.988Z,69.99
2023-03-21T16:01:19.402Z,70.47
2023-03-21T16:04:12.919Z,70.74
2023-03-21T16:07:03.829Z,71.31
2023-03-21T16:09:58.142Z,71.20
2023-03-21T16:12:44.994Z,71.75
2023-03-21T16:15:31.960Z,71.87
2023-03-21T16:18:21.172Z,72.00
2023-03-21T16:21:12.919Z,72.40
2023-03-21T16:24:00.049Z,73.03
2023-03-21T16:26:51.461Z,73.49
2023-03-21T16:29:39.378Z,74.06
2023-03-21T16:32:25.558Z,74.81
2023-03-21T16:35:12.630Z,75.02
2023-03-21T16:37:59.279Z,75.42
2023-03-21T16:40:45.736Z,75.67
2023-03-21T16:43:32.093Z,76.30
2023-03-21T16:46:26.475Z,76.65
2023-03-21T16:49:26.220Z,77.35
2023-03-21T16:52:13.837Z,78.10
2023-03-21T16:55:00.605Z,78.57
2023-03-21T16:57:49.607Z,79.16
2023-03-21T17:00:36.888Z,79.09
2023-03-21T17:03:25.419Z,79.56
2023-03-21T17:06:19.648Z,79.52
2023-03-21T17:09:06.208Z,80.21
2023-03-21T17:11:52.836Z,79.88
2023-03-21T17:14:41.393Z,79.94
2023-03-21T17:17:28.109Z,79.89
2023-03-21T17:20:23.595Z,79.63
2023-03-21T17:23:10.449Z,80.29
2023-03-21T17:25:57.154Z,80.02
2023-03-21T17:28:43.894Z,80.31
2023-03-21T17:31:36.867Z,80.50
2023-03-21T17:34:24.492Z,80.37
2023-03-21T17:37:12.066Z,80.08
2023-03-21T17:39:58.784Z,80.19
2023-03-21T17:42:49.023Z,79.83
2023-03-21T17:45:35.977Z,80.18
2023-03-21T17:48:22.546Z,80.18
2023-03-21T17:51:17.139Z,80.58
2023-03-21T17:54:05.422Z,80.92
2023-03-21T17:56:52.000Z,80.64
2023-03-21T17:59:39.714Z,80.65
2023-03-21T18:02:26.166Z,80.88
2023-03-21T18:05:12.639Z,80.87
2023-03-21T18:08:10.324Z,81.57
2023-03-21T18:10:58.266Z,81.46
2023-03-21T18:13:45.270Z,81.88
2023-03-21T18:16:31.551Z,81.97
2023-03-21T18:19:18.548Z,82.01
2023-03-21T18:22:05.658Z,82.44
2023-03-21T18:24:52.918Z,82.56
2023-03-21T18:28:02.095Z,82.82
2023-03-21T18:31:05.413Z,83.25
2023-03-21T18:33:54.401Z,83.02
2023-03-21T18:36:42.873Z,83.29
2023-03-21T18:39:31.742Z,83.29
2023-03-21T18:42:21.844Z,83.23
2023-03-21T18:45:10.979Z,82.96
2023-03-21T18:47:59.807Z,83.31
2023-03-21T18:50:46.863Z,83.12
2023-03-21T18:53:33.436Z,83.26
2023-03-21T18:57:06.362Z,83.62
2023-03-21T18:59:27.296Z,83.58
2023-03-21T19:02:15.496Z,83.44
2023-03-21T19:05:04.053Z,83.62
2023-03-21T19:07:51.917Z,83.56
2023-03-21T19:10:38.471Z,83.99
2023-03-21T19:13:26.631Z,83.91
2023-03-21T19:16:14.064Z,83.85
2023-03-21T19:19:00.936Z,83.62
2023-03-21T19:21:50.723Z,83.29
2023-03-21T19:24:39.834Z,83.04
2023-03-21T19:27:27.174Z,82.89
2023-03-21T19:30:15.618Z,82.59
2023-03-21T19:33:02.370Z,82.23
2023-03-21T19:35:50.287Z,82.10
2023-03-21T19:38:37.173Z,81.81
2023-03-21T19:41:23.934Z,81.60
2023-03-21T19:44:10.539Z,81.63
2023-03-21T19:46:57.373Z,81.64
2023-03-21T19:50:30.757Z,81.59
2023-03-21T19:52:51.582Z,81.57
2023-03-21T19:55:38.526Z,81.19
2023-03-21T19:58:25.135Z,80.97
2023-03-21T20:01:11.710Z,80.96
2023-03-21T20:03:58.816Z,80.69
2023-03-21T20:06:46.418Z,80.45
2023-03-21T20:09:52.581Z,80.65
2023-03-21T20:12:39.376Z,80.32
2023-03-21T20:15:29.710Z,80.24
2023-03-21T20:18:18.022Z,80.24
2023-03-21T20:21:04.809Z,80.05
2023-03-21T20:23:54.357Z,79.76
2023-03-21T20:26:40.832Z,79.60
2023-03-21T20:30:07.414Z,79.87
2023-03-21T20:32:39.430Z,79.63
2023-03-21T20:36:05.547Z,79.88
2023-03-21T20:38:35.231Z,79.71
2023-03-21T20:41:21.938Z,79.90
2023-03-21T20:47:16.904Z,79.88
2023-03-21T20:50:05.497Z,79.51
2023-03-21T20:53:05.899Z,79.51
2023-03-21T20:55:55.080Z,79.83
2023-03-21T20:59:12.583Z,79.58
2023-03-21T21:01:48.472Z,79.64
2023-03-21T21:04:49.902Z,79.48
2023-03-21T21:07:43.385Z,79.52
2023-03-21T21:10:31.622Z,79.34
2023-03-21T21:13:18.447Z,79.20
2023-03-21T21:16:07.516Z,79.18
2023-03-21T21:18:54.784Z,78.99
2023-03-21T21:21:41.156Z,78.89
2023-03-21T21:24:27.923Z,78.89
2023-03-21T21:27:15.795Z,78.83
2023-03-21T21:30:02.957Z,78.91
2023-03-21T21:32:49.544Z,78.69
2023-03-21T21:35:36.360Z,78.50
2023-03-21T21:38:23.123Z,78.67
2023-03-21T21:41:20.912Z,78.80
2023-03-21T21:44:09.372Z,78.71
2023-03-21T21:46:56.842Z,78.81
2023-03-21T21:49:43.271Z,78.81
2023-03-21T21:52:30.088Z,79.42
2023-03-21T21:55:17.385Z,79.06
2023-03-21T21:58:04.183Z,78.98
2023-03-21T22:00:50.321Z,79.04
2023-03-21T22:03:40.433Z,78.99
2023-03-21T22:06:27.222Z,79.05
2023-03-21T22:09:14.831Z,79.33
2023-03-21T22:12:01.524Z,79.25
2023-03-21T22:14:48.477Z,79.56
2023-03-21T22:17:35.652Z,79.23
2023-03-21T22:20:21.934Z,79.57
2023-03-21T22:23:08.500Z,79.54
2023-03-21T22:25:56.985Z,79.52
2023-03-21T22:28:43.819Z,79.62
2023-03-21T22:31:32.564Z,79.53
2023-03-21T22:34:22.069Z,79.41
2023-03-21T22:37:08.521Z,79.43
2023-03-21T22:39:55.154Z,79.32
2023-03-21T22:42:42.711Z,79.32
2023-03-21T22:45:29.391Z,79.39
2023-03-21T22:48:16.680Z,79.12
2023-03-21T22:51:04.059Z,79.30
2023-03-21T22:53:50.840Z,79.40
2023-03-21T22:56:37.143Z,79.37
2023-03-21T22:59:25.876Z,79.47
2023-03-21T23:02:13.632Z,79.49
2023-03-21T23:04:59.868Z,79.40
2023-03-21T23:07:46.245Z,79.53
2023-03-21T23:10:32.931Z,79.29
2023-03-21T23:13:19.109Z,79.43
2023-03-21T23:16:07.129Z,79.57
2023-03-21T23:18:54.445Z,79.49
2023-03-21T23:21:43.729Z,79.82
2023-03-21T23:24:29.945Z,79.79
2023-03-21T23:27:17.533Z,79.58
2023-03-21T23:30:07.644Z,79.75
2023-03-21T23:32:55.169Z,79.77
2023-03-21T23:35:41.566Z,79.81
2023-03-21T23:38:27.854Z,79.73
2023-03-21T23:41:19.006Z,80.05
2023-03-21T23:44:05.773Z,80.08
2023-03-21T23:46:52.026Z,80.30
2023-03-21T23:49:38.556Z,80.43
2023-03-21T23:52:25.509Z,80.53
2023-03-21T23:55:12.742Z,80.70
2023-03-21T23:57:59.044Z,80.80
